Flight Track Log - Related Links

Times and Time Zones

All times are in EDT time to prevent confusion due to time zone crossing. See the EGF4393 flight status page for this flight to view local times or setup timezone preferences in your user account.

Time Position Orientation Groundspeed Altitude Reporting Facility
EDT Latitude Longitude Course Direction KTS MPH feet Rate Location/Type
Tue 03:39:08 PM 41.9667 -87.9667 346° North 182 209 2,400  Level Chicago TRACON
Tue 03:40:08 PM 41.9667 -88.0500 270° West 230 265 4,500 1,316 Climbing Chicago TRACON
Tue 03:41:00 PM 42.2497 -87.9916 350° North  Level FlightAware Approximate
Tue 03:41:02 PM 41.9667 -88.1167 270° West 241 277 4,900  Level Chicago TRACON
Tue 03:41:25 PM 41.9628 -88.1472 260° West 235 270 5,300 2,118 Climbing Chicago Center
Tue 03:42:00 PM 42.3457 -88.0156 350° North  Level FlightAware Approximate
Tue 03:42:27 PM 41.9989 -88.2222 303° West 278 320 7,900  Level Chicago Center
Tue 03:43:00 PM 42.4385 -88.0544 352° North  Level FlightAware Approximate
Tue 03:43:29 PM 42.0894 -88.1500 31° Northeast 327 376 10,700  Level Chicago Center
Tue 03:44:00 PM 42.5310 -88.0881 346° North  Level FlightAware Approximate
Tue 03:44:31 PM 42.1617 -88.0719 39° Northeast 335 386 13,100  Level Chicago Center
Tue 03:45:33 PM 42.2514 -88.0519 North 333 383 15,000 2,032 Climbing Chicago Center
Tue 03:46:35 PM 42.3428 -88.0456 North 334 384 17,300 2,016 Climbing Chicago Center
Tue 03:47:38 PM 42.4481 -88.0844 345° North 337 388 19,200 1,694 Climbing Chicago Center
Tue 03:48:39 PM 42.5353 -88.1450 333° Northwest 348 400 20,800 1,366 Climbing Chicago Center
Tue 03:49:41 PM 42.6264 -88.2064 334° Northwest 361 415 22,000 581 Climbing Chicago Center
Tue 03:50:43 PM 42.7242 -88.2700 334° Northwest 386 444 22,000  Level Chicago Center
Tue 03:51:45 PM 42.8289 -88.3386 334° Northwest 411 473 22,000  Level Chicago Center
Tue 03:52:47 PM 42.9350 -88.4075 335° Northwest 420 483 22,000  Level Chicago Center
Tue 03:53:49 PM 43.0569 -88.4892 334° Northwest 417 480 22,000  Level Chicago Center
Tue 03:54:51 PM 43.1600 -88.5572 334° Northwest 410 472 22,000  Level Chicago Center
Tue 03:55:53 PM 43.2636 -88.6269 334° Northwest 410 472 22,000  Level Chicago Center
Tue 03:56:55 PM 43.3689 -88.6969 334° Northwest 412 474 22,000 -97 Level Chicago Center
Tue 03:57:57 PM 43.4739 -88.7675 334° Northwest 412 474 21,800 -774 Descending Chicago Center
Tue 03:58:59 PM 43.5722 -88.8347 334° Northwest 396 456 20,400 -1,392 Descending Chicago Center
Tue 04:00:02 PM 43.6719 -88.9008 334° Northwest 393 452 18,900 -1,467 Descending Chicago Center
Tue 04:00:29 PM 43.7228 -88.9339 335° Northwest 397 457 18,200 -1,618 Descending Minneapolis Center
Tue 04:01:31 PM 43.8244 -89.0039 334° Northwest 405 466 16,500 -1,548 Descending Minneapolis Center
Tue 04:02:33 PM 43.9239 -89.0714 334° Northwest 398 458 15,000 -1,268 Descending Minneapolis Center
Tue 04:03:34 PM 44.0378 -89.1506 333° Northwest 396 456 13,900 -1,415 Descending Minneapolis Center
Tue 04:04:36 PM 44.1283 -89.2144 333° Northwest 382 440 12,100 -1,548 Descending Minneapolis Center
Tue 04:05:38 PM 44.2228 -89.2792 334° Northwest 367 422 10,700 -1,073 Descending Minneapolis Center
Tue 04:06:39 PM 44.3078 -89.3381 334° Northwest 322 371 9,900 -1,415 Descending Minneapolis Center
Tue 04:07:41 PM 44.3825 -89.3914 333° Northwest 291 335 7,800 -1,984 Descending Minneapolis Center
Tue 04:08:43 PM 44.4556 -89.4431 333° Northwest 282 325 5,800 -1,561 Descending Minneapolis Center
Tue 04:09:44 PM 44.5206 -89.4883 334° Northwest 275 316 4,600 -1,073 Descending Minneapolis Center
Tue 04:10:46 PM 44.5858 -89.5356 333° Northwest 255 293 3,600 -774 Descending Minneapolis Center
Tue 04:11:48 PM 44.6344 -89.5606 340° North 240 276 3,000 -581 Descending Minneapolis Center

Login

Don't have an account? Register now (free) for customized features, flight alerts, and more!